sensor_id;sensor_type;location;lat;lon;timestamp;pressure;altitude;pressure_sealevel;temperature;humidity
7168;BME280;3625;51.762;14.320;2023-12-07T00:02:05;100870.94;;;2.04;100.00
7168;BME280;3625;51.762;14.320;2023-12-07T00:04:35;100881.31;;;2.01;100.00
7168;BME280;3625;51.762;14.320;2023-12-07T00:07:04;100752.03;;;1.25;100.00
7168;BME280;3625;51.762;14.320;2023-12-07T00:09:33;100881.25;;;2.00;100.00
7168;BME280;3625;51.762;14.320;2023-12-07T00:12:02;100882.16;;;1.99;100.00
7168;BME280;3625;51.762;14.320;2023-12-07T00:14:31;100880.34;;;1.96;100.00
7168;BME280;3625;51.762;14.320;2023-12-07T00:16:59;100874.19;;;1.93;100.00
7168;BME280;3625;51.762;14.320;2023-12-07T00:19:28;100872.41;;;1.90;100.00
7168;BME280;3625;51.762;14.320;2023-12-07T00:21:58;100872.38;;;1.88;100.00
7168;BME280;3625;51.762;14.320;2023-12-07T00:24:27;100875.75;;;1.84;100.00
7168;BME280;3625;51.762;14.320;2023-12-07T00:26:56;100873.97;;;1.80;100.00
7168;BME280;3625;51.762;14.320;2023-12-07T00:29:25;100884.34;;;1.79;100.00
7168;BME280;3625;51.762;14.320;2023-12-07T00:31:53;100890.41;;;1.78;100.00
7168;BME280;3625;51.762;14.320;2023-12-07T00:34:22;100886.00;;;1.75;100.00
7168;BME280;3625;51.762;14.320;2023-12-07T00:36:51;100883.44;;;1.77;100.00
7168;BME280;3625;51.762;14.320;2023-12-07T00:39:21;100884.31;;;1.77;100.00
7168;BME280;3625;51.762;14.320;2023-12-07T00:41:50;100882.47;;;1.73;100.00
7168;BME280;3625;51.762;14.320;2023-12-07T00:44:18;100885.97;;;1.72;100.00
7168;BME280;3625;51.762;14.320;2023-12-07T00:46:47;100882.44;;;1.70;100.00
7168;BME280;3625;51.762;14.320;2023-12-07T00:49:16;100891.16;;;1.71;100.00
7168;BME280;3625;51.762;14.320;2023-12-07T00:51:45;100867.38;;;1.57;100.00
7168;BME280;3625;51.762;14.320;2023-12-07T00:54:14;100891.09;;;1.69;100.00
7168;BME280;3625;51.762;14.320;2023-12-07T00:56:44;100895.53;;;1.72;100.00
7168;BME280;3625;51.762;14.320;2023-12-07T00:59:12;100891.16;;;1.71;100.00
7168;BME280;3625;51.762;14.320;2023-12-07T01:01:41;100897.22;;;1.70;100.00
7168;BME280;3625;51.762;14.320;2023-12-07T01:04:10;100892.84;;;1.69;100.00
7168;BME280;3625;51.762;14.320;2023-12-07T01:06:38;100897.13;;;1.67;100.00
7168;BME280;3625;51.762;14.320;2023-12-07T01:09:07;100905.78;;;1.64;100.00
7168;BME280;3625;51.762;14.320;2023-12-07T01:11:40;100910.09;;;1.62;100.00
7168;BME280;3625;51.762;14.320;2023-12-07T01:14:10;100903.06;;;1.60;100.00
7168;BME280;3625;51.762;14.320;2023-12-07T01:16:39;100869.50;;;1.34;100.00
7168;BME280;3625;51.762;14.320;2023-12-07T01:19:08;100909.09;;;1.56;100.00
7168;BME280;3625;51.762;14.320;2023-12-07T01:21:37;100908.97;;;1.51;100.00
7168;BME280;3625;51.762;14.320;2023-12-07T01:24:07;100874.53;;;1.25;100.00
7168;BME280;3625;51.762;14.320;2023-12-07T01:26:42;100901.66;;;1.35;100.00
7168;BME280;3625;51.762;14.320;2023-12-07T01:29:12;100918.28;;;1.40;100.00
7168;BME280;3625;51.762;14.320;2023-12-07T01:31:42;100921.69;;;1.36;100.00
7168;BME280;3625;51.762;14.320;2023-12-07T01:34:10;100926.81;;;1.33;100.00
7168;BME280;3625;51.762;14.320;2023-12-07T01:36:39;100923.25;;;1.28;100.00
7168;BME280;3625;51.762;14.320;2023-12-07T01:39:08;100929.22;;;1.24;100.00
7168;BME280;3625;51.762;14.320;2023-12-07T01:41:40;100926.50;;;1.19;100.00
7168;BME280;3625;51.762;14.320;2023-12-07T01:44:08;100928.94;;;1.13;100.00
7168;BME280;3625;51.762;14.320;2023-12-07T01:46:38;100921.09;;;1.10;100.00
7168;BME280;3625;51.762;14.320;2023-12-07T01:49:09;100923.63;;;1.07;100.00
7168;BME280;3625;51.762;14.320;2023-12-07T01:51:41;100923.53;;;1.02;100.00
7168;BME280;3625;51.762;14.320;2023-12-07T01:54:09;100929.56;;;1.01;100.00
7168;BME280;3625;51.762;14.320;2023-12-07T01:56:38;100939.09;;;1.01;100.00
7168;BME280;3625;51.762;14.320;2023-12-07T01:59:07;100926.59;;;0.88;100.00
7168;BME280;3625;51.762;14.320;2023-12-07T02:01:39;100937.28;;;0.98;100.00
7168;BME280;3625;51.762;14.320;2023-12-07T02:04:09;100930.44;;;1.02;100.00
7168;BME280;3625;51.762;14.320;2023-12-07T02:06:38;100942.78;;;1.09;100.00
7168;BME280;3625;51.762;14.320;2023-12-07T02:09:07;100941.25;;;1.19;100.00
7168;BME280;3625;51.762;14.320;2023-12-07T02:11:36;100937.94;;;1.26;100.00
7168;BME280;3625;51.762;14.320;2023-12-07T02:14:05;100906.44;;;1.15;100.00
7168;BME280;3625;51.762;14.320;2023-12-07T02:16:43;100932.06;;;1.34;100.00
7168;BME280;3625;51.762;14.320;2023-12-07T02:19:33;100949.81;;;1.50;100.00
7168;BME280;3625;51.762;14.320;2023-12-07T02:22:17;100945.72;;;1.62;100.00
7168;BME280;3625;51.762;14.320;2023-12-07T02:25:03;100940.69;;;1.71;100.00
7168;BME280;3625;51.762;14.320;2023-12-07T02:27:38;100948.66;;;1.77;100.00
7168;BME280;3625;51.762;14.320;2023-12-07T02:30:09;100924.09;;;1.67;100.00
7168;BME280;3625;51.762;14.320;2023-12-07T02:32:39;100919.72;;;1.66;100.00
7168;BME280;3625;51.762;14.320;2023-12-07T02:35:10;100948.88;;;1.87;100.00
7168;BME280;3625;51.762;14.320;2023-12-07T02:37:44;100946.25;;;1.87;100.00
7168;BME280;3625;51.762;14.320;2023-12-07T02:40:16;100955.91;;;1.92;100.00
7168;BME280;3625;51.762;14.320;2023-12-07T02:42:48;100952.44;;;1.93;100.00
7168;BME280;3625;51.762;14.320;2023-12-07T02:45:17;100951.72;;;1.98;100.00
7168;BME280;3625;51.762;14.320;2023-12-07T02:47:45;100947.38;;;2.00;100.00
7168;BME280;3625;51.762;14.320;2023-12-07T02:50:14;100904.34;;;1.78;100.00
7168;BME280;3625;51.762;14.320;2023-12-07T02:52:43;100954.47;;;2.06;100.00
7168;BME280;3625;51.762;14.320;2023-12-07T02:55:12;100921.75;;;1.79;100.00
7168;BME280;3625;51.762;14.320;2023-12-07T02:57:41;100960.56;;;2.06;100.00
7168;BME280;3625;51.762;14.320;2023-12-07T03:00:12;100965.72;;;2.03;100.00
7168;BME280;3625;51.762;14.320;2023-12-07T03:02:41;100967.44;;;2.03;100.00
7168;BME280;3625;51.762;14.320;2023-12-07T03:05:10;100962.25;;;2.04;100.00
7168;BME280;3625;51.762;14.320;2023-12-07T03:07:39;100967.59;;;2.10;100.00
7168;BME280;3625;51.762;14.320;2023-12-07T03:10:08;100965.91;;;2.12;100.00
7168;BME280;3625;51.762;14.320;2023-12-07T03:12:37;100973.81;;;2.15;100.00
7168;BME280;3625;51.762;14.320;2023-12-07T03:15:07;100979.00;;;2.14;100.00
7168;BME280;3625;51.762;14.320;2023-12-07T03:17:38;100981.63;;;2.15;100.00
7168;BME280;3625;51.762;14.320;2023-12-07T03:20:08;100986.78;;;2.12;100.00
7168;BME280;3625;51.762;14.320;2023-12-07T03:22:37;100989.47;;;2.15;100.00
7168;BME280;3625;51.762;14.320;2023-12-07T03:25:09;100984.25;;;2.15;100.00
7168;BME280;3625;51.762;14.320;2023-12-07T03:27:38;100989.47;;;2.15;100.00
7168;BME280;3625;51.762;14.320;2023-12-07T03:30:07;100989.50;;;2.18;100.00
7168;BME280;3625;51.762;14.320;2023-12-07T03:32:38;100991.31;;;2.21;100.00
7168;BME280;3625;51.762;14.320;2023-12-07T03:35:07;100979.03;;;2.17;100.00
7168;BME280;3625;51.762;14.320;2023-12-07T03:37:36;100989.63;;;2.23;100.00
7168;BME280;3625;51.762;14.320;2023-12-07T03:40:06;100994.78;;;2.21;100.00
7168;BME280;3625;51.762;14.320;2023-12-07T03:42:36;100991.34;;;2.22;100.00
7168;BME280;3625;51.762;14.320;2023-12-07T03:45:22;100994.03;;;2.27;100.00
7168;BME280;3625;51.762;14.320;2023-12-07T03:47:52;100994.94;;;2.29;100.00
7168;BME280;3625;51.762;14.320;2023-12-07T03:50:21;100998.41;;;2.28;100.00
7168;BME280;3625;51.762;14.320;2023-12-07T03:52:50;100963.97;;;2.04;100.00
7168;BME280;3625;51.762;14.320;2023-12-07T03:55:18;100992.19;;;2.21;100.00
7168;BME280;3625;51.762;14.320;2023-12-07T03:57:47;100993.19;;;2.28;100.00
7168;BME280;3625;51.762;14.320;2023-12-07T04:00:16;100994.94;;;2.29;100.00
7168;BME280;3625;51.762;14.320;2023-12-07T04:02:45;100994.13;;;2.32;100.00
7168;BME280;3625;51.762;14.320;2023-12-07T04:05:15;100997.63;;;2.34;100.00
7168;BME280;3625;51.762;14.320;2023-12-07T04:07:44;100995.00;;;2.32;100.00
7168;BME280;3625;51.762;14.320;2023-12-07T04:10:12;101004.63;;;2.35;100.00
7168;BME280;3625;51.762;14.320;2023-12-07T04:12:41;101005.56;;;2.38;100.00
7168;BME280;3625;51.762;14.320;2023-12-07T04:15:10;101004.69;;;2.38;100.00
7168;BME280;3625;51.762;14.320;2023-12-07T04:17:42;101016.06;;;2.40;100.00
7168;BME280;3625;51.762;14.320;2023-12-07T04:20:11;101011.72;;;2.40;100.00
7168;BME280;3625;51.762;14.320;2023-12-07T04:22:42;101015.22;;;2.42;100.00
7168;BME280;3625;51.762;14.320;2023-12-07T04:25:13;101004.66;;;2.36;100.00
7168;BME280;3625;51.762;14.320;2023-12-07T04:27:41;101010.06;;;2.45;100.00
7168;BME280;3625;51.762;14.320;2023-12-07T04:30:12;101018.78;;;2.46;100.00
7168;BME280;3625;51.762;14.320;2023-12-07T04:32:40;101008.19;;;2.38;100.00
7168;BME280;3625;51.762;14.320;2023-12-07T04:35:09;101023.16;;;2.47;100.00
7168;BME280;3625;51.762;14.320;2023-12-07T04:37:38;101024.88;;;2.46;100.00
7168;BME280;3625;51.762;14.320;2023-12-07T04:40:10;101014.34;;;2.43;100.00
7168;BME280;3625;51.762;14.320;2023-12-07T04:42:38;101025.06;;;2.55;100.00
7168;BME280;3625;51.762;14.320;2023-12-07T04:45:08;100993.28;;;2.34;100.00
7168;BME280;3625;51.762;14.320;2023-12-07T04:47:37;101029.31;;;2.52;100.00
7168;BME280;3625;51.762;14.320;2023-12-07T04:50:06;101032.94;;;2.57;100.00
7168;BME280;3625;51.762;14.320;2023-12-07T04:52:35;101022.19;;;2.42;100.00
7168;BME280;3625;51.762;14.320;2023-12-07T04:55:06;101030.13;;;2.48;100.00
7168;BME280;3625;51.762;14.320;2023-12-07T04:57:36;101014.31;;;2.40;100.00
7168;BME280;3625;51.762;14.320;2023-12-07T05:00:06;101051.06;;;2.49;100.00
7168;BME280;3625;51.762;14.320;2023-12-07T05:02:38;101049.34;;;2.50;100.00
7168;BME280;3625;51.762;14.320;2023-12-07T05:05:07;101047.56;;;2.49;100.00
7168;BME280;3625;51.762;14.320;2023-12-07T05:07:36;101048.41;;;2.48;100.00
7168;BME280;3625;51.762;14.320;2023-12-07T05:10:06;100978.88;;;2.09;100.00
7168;BME280;3625;51.762;14.320;2023-12-07T05:12:53;101042.44;;;2.55;100.00
7168;BME280;3625;51.762;14.320;2023-12-07T05:15:24;101046.75;;;2.53;100.00
7168;BME280;3625;51.762;14.320;2023-12-07T05:17:53;101041.34;;;2.44;100.00
7168;BME280;3625;51.762;14.320;2023-12-07T05:20:42;101057.16;;;2.50;100.00
7168;BME280;3625;51.762;14.320;2023-12-07T05:23:11;101051.94;;;2.50;100.00
7168;BME280;3625;51.762;14.320;2023-12-07T05:25:40;101022.88;;;2.35;100.00
7168;BME280;3625;51.762;14.320;2023-12-07T05:28:10;101051.13;;;2.54;100.00
7168;BME280;3625;51.762;14.320;2023-12-07T05:30:39;101047.59;;;2.52;100.00
7168;BME280;3625;51.762;14.320;2023-12-07T05:33:09;101053.84;;;2.60;100.00
7168;BME280;3625;51.762;14.320;2023-12-07T05:35:38;101053.94;;;2.63;100.00
7168;BME280;3625;51.762;14.320;2023-12-07T05:38:07;101057.47;;;2.65;100.00
7168;BME280;3625;51.762;14.320;2023-12-07T05:40:36;101063.59;;;2.67;100.00
7168;BME280;3625;51.762;14.320;2023-12-07T05:43:05;101062.78;;;2.71;100.00
7168;BME280;3625;51.762;14.320;2023-12-07T05:45:36;101066.38;;;2.76;100.00
7168;BME280;3625;51.762;14.320;2023-12-07T05:48:05;101043.41;;;2.60;100.00
7168;BME280;3625;51.762;14.320;2023-12-07T05:50:34;101076.00;;;2.79;100.00
7168;BME280;3625;51.762;14.320;2023-12-07T05:53:06;101069.03;;;2.79;100.00
7168;BME280;3625;51.762;14.320;2023-12-07T05:55:36;101075.13;;;2.78;100.00
7168;BME280;3625;51.762;14.320;2023-12-07T05:58:05;101076.88;;;2.79;100.00
7168;BME280;3625;51.762;14.320;2023-12-07T06:00:34;101078.59;;;2.79;100.00
7168;BME280;3625;51.762;14.320;2023-12-07T06:03:04;101080.34;;;2.78;100.00
7168;BME280;3625;51.762;14.320;2023-12-07T06:05:32;101083.91;;;2.82;100.00
7168;BME280;3625;51.762;14.320;2023-12-07T06:08:01;101085.63;;;2.81;100.00
7168;BME280;3625;51.762;14.320;2023-12-07T06:10:31;101041.72;;;2.62;100.00
7168;BME280;3625;51.762;14.320;2023-12-07T06:13:01;101088.25;;;2.81;100.00
7168;BME280;3625;51.762;14.320;2023-12-07T06:15:31;101082.22;;;2.84;100.00
7168;BME280;3625;51.762;14.320;2023-12-07T06:17:59;101083.94;;;2.83;100.00
7168;BME280;3625;51.762;14.320;2023-12-07T06:20:30;101085.72;;;2.84;100.00
7168;BME280;3625;51.762;14.320;2023-12-07T06:23:01;101082.25;;;2.85;100.00
7168;BME280;3625;51.762;14.320;2023-12-07T06:25:30;101001.31;;;2.42;100.00
7168;BME280;3625;51.762;14.320;2023-12-07T06:28:00;101062.00;;;2.75;100.00
7168;BME280;3625;51.762;14.320;2023-12-07T06:30:29;101088.44;;;2.90;100.00
7168;BME280;3625;51.762;14.320;2023-12-07T06:32:57;101076.84;;;2.78;100.00
7168;BME280;3625;51.762;14.320;2023-12-07T06:35:26;101060.19;;;2.71;100.00
7168;BME280;3625;51.762;14.320;2023-12-07T06:37:59;101093.56;;;2.87;100.00
7168;BME280;3625;51.762;14.320;2023-12-07T06:40:28;101098.81;;;2.87;100.00
7168;BME280;3625;51.762;14.320;2023-12-07T06:42:57;101097.13;;;2.89;100.00
7168;BME280;3625;51.762;14.320;2023-12-07T06:45:26;101092.75;;;2.90;100.00
7168;BME280;3625;51.762;14.320;2023-12-07T06:47:57;101084.03;;;2.89;100.00
7168;BME280;3625;51.762;14.320;2023-12-07T06:50:26;101090.25;;;2.96;100.00
7168;BME280;3625;51.762;14.320;2023-12-07T06:52:56;101093.72;;;2.93;100.00
7168;BME280;3625;51.762;14.320;2023-12-07T06:55:25;101091.84;;;2.88;100.00
7168;BME280;3625;51.762;14.320;2023-12-07T06:57:53;101090.09;;;2.87;100.00
7168;BME280;3625;51.762;14.320;2023-12-07T07:00:33;101097.06;;;2.88;100.00
7168;BME280;3625;51.762;14.320;2023-12-07T07:03:03;101086.47;;;2.80;100.00
7168;BME280;3625;51.762;14.320;2023-12-07T07:05:37;101104.06;;;2.89;100.00
7168;BME280;3625;51.762;14.320;2023-12-07T07:08:09;101105.06;;;2.94;100.00
7168;BME280;3625;51.762;14.320;2023-12-07T07:10:38;101105.97;;;2.97;100.00
7168;BME280;3625;51.762;14.320;2023-12-07T07:13:07;101104.22;;;2.96;100.00
7168;BME280;3625;51.762;14.320;2023-12-07T07:15:35;101090.84;;;2.81;100.00
7168;BME280;3625;51.762;14.320;2023-12-07T07:18:04;101096.16;;;2.84;100.00
7168;BME280;3625;51.762;14.320;2023-12-07T07:20:33;101093.63;;;2.89;100.00
7168;BME280;3625;51.762;14.320;2023-12-07T07:23:05;101115.56;;;2.98;100.00
7168;BME280;3625;51.762;14.320;2023-12-07T07:25:36;101119.09;;;3.00;100.00
7168;BME280;3625;51.762;14.320;2023-12-07T07:28:06;101120.88;;;3.01;100.00
7168;BME280;3625;51.762;14.320;2023-12-07T07:30:35;101129.59;;;3.03;100.00
7168;BME280;3625;51.762;14.320;2023-12-07T07:33:03;101123.53;;;3.04;100.00
7168;BME280;3625;51.762;14.320;2023-12-07T07:35:32;101124.50;;;3.10;100.00
7168;BME280;3625;51.762;14.320;2023-12-07T07:38:01;101117.56;;;3.12;100.00
7168;BME280;3625;51.762;14.320;2023-12-07T07:40:29;101116.72;;;3.13;100.00
7168;BME280;3625;51.762;14.320;2023-12-07T07:43:02;101114.22;;;3.19;100.00
7168;BME280;3625;51.762;14.320;2023-12-07T07:45:31;101080.81;;;3.02;100.00
7168;BME280;3625;51.762;14.320;2023-12-07T07:48:00;101111.72;;;3.25;100.00
7168;BME280;3625;51.762;14.320;2023-12-07T07:50:29;101113.50;;;3.29;100.00
7168;BME280;3625;51.762;14.320;2023-12-07T07:52:57;101116.97;;;3.26;100.00
7168;BME280;3625;51.762;14.320;2023-12-07T07:55:26;101115.28;;;3.30;100.00
7168;BME280;3625;51.762;14.320;2023-12-07T07:57:55;101119.78;;;3.37;100.00
7168;BME280;3625;51.762;14.320;2023-12-07T08:00:25;101117.19;;;3.40;100.00
7168;BME280;3625;51.762;14.320;2023-12-07T08:02:56;101120.72;;;3.42;100.00
7168;BME280;3625;51.762;14.320;2023-12-07T08:05:25;101092.50;;;3.23;100.00
7168;BME280;3625;51.762;14.320;2023-12-07T08:07:53;101127.63;;;3.38;100.00
7168;BME280;3625;51.762;14.320;2023-12-07T08:10:22;101121.53;;;3.36;100.00
7168;BME280;3625;51.762;14.320;2023-12-07T08:12:51;101127.59;;;3.35;100.00
7168;BME280;3625;51.762;14.320;2023-12-07T08:15:20;100987.66;;;2.56;100.00
7168;BME280;3625;51.762;14.320;2023-12-07T08:17:50;101085.41;;;3.16;100.00
7168;BME280;3625;51.762;14.320;2023-12-07T08:20:20;101074.09;;;3.17;100.00
7168;BME280;3625;51.762;14.320;2023-12-07T08:22:48;101126.03;;;3.47;100.00
7168;BME280;3625;51.762;14.320;2023-12-07T08:25:17;101126.91;;;3.46;100.00
7168;BME280;3625;51.762;14.320;2023-12-07T08:27:46;101122.59;;;3.49;100.00
7168;BME280;3625;51.762;14.320;2023-12-07T08:30:15;101119.19;;;3.55;100.00
7168;BME280;3625;51.762;14.320;2023-12-07T08:32:44;101124.56;;;3.62;100.00
7168;BME280;3625;51.762;14.320;2023-12-07T08:35:14;101132.16;;;3.47;100.00
7168;BME280;3625;51.762;14.320;2023-12-07T08:37:43;101126.19;;;3.56;100.00
7168;BME280;3625;51.762;14.320;2023-12-07T08:40:12;101125.44;;;3.61;100.00
7168;BME280;3625;51.762;14.320;2023-12-07T08:42:46;101118.28;;;3.51;100.00
7168;BME280;3625;51.762;14.320;2023-12-07T08:45:18;101133.31;;;3.64;100.00
7168;BME280;3625;51.762;14.320;2023-12-07T08:47:47;101140.44;;;3.73;100.00
7168;BME280;3625;51.762;14.320;2023-12-07T08:50:18;101112.28;;;3.58;100.00
7168;BME280;3625;51.762;14.320;2023-12-07T08:52:46;101144.88;;;3.77;100.00
7168;BME280;3625;51.762;14.320;2023-12-07T08:55:23;101147.56;;;3.80;100.00
7168;BME280;3625;51.762;14.320;2023-12-07T08:57:53;101148.34;;;3.76;100.00
7168;BME280;3625;51.762;14.320;2023-12-07T09:00:22;101150.97;;;3.76;100.00
7168;BME280;3625;51.762;14.320;2023-12-07T09:02:52;101154.38;;;3.72;100.00
7168;BME280;3625;51.762;14.320;2023-12-07T09:05:23;101158.72;;;3.70;100.00
7168;BME280;3625;51.762;14.320;2023-12-07T09:07:52;101157.00;;;3.73;100.00
7168;BME280;3625;51.762;14.320;2023-12-07T09:10:21;101146.38;;;3.64;100.00
7168;BME280;3625;51.762;14.320;2023-12-07T09:12:49;101168.38;;;3.75;100.00
7168;BME280;3625;51.762;14.320;2023-12-07T09:15:18;101167.59;;;3.79;100.00
7168;BME280;3625;51.762;14.320;2023-12-07T09:17:48;101169.38;;;3.82;100.00
7168;BME280;3625;51.762;14.320;2023-12-07T09:20:17;101165.88;;;3.82;100.00
7168;BME280;3625;51.762;14.320;2023-12-07T09:22:47;101119.16;;;3.52;100.00
7168;BME280;3625;51.762;14.320;2023-12-07T09:25:17;101173.72;;;3.82;100.00
7168;BME280;3625;51.762;14.320;2023-12-07T09:27:46;101147.50;;;3.77;100.00
7168;BME280;3625;51.762;14.320;2023-12-07T09:30:17;101167.75;;;3.89;100.00
7168;BME280;3625;51.762;14.320;2023-12-07T09:32:45;101169.50;;;3.88;100.00
7168;BME280;3625;51.762;14.320;2023-12-07T09:35:14;101132.34;;;3.58;100.00
7168;BME280;3625;51.762;14.320;2023-12-07T09:37:49;101168.50;;;3.83;100.00
7168;BME280;3625;51.762;14.320;2023-12-07T09:40:20;101165.13;;;3.89;100.00
7168;BME280;3625;51.762;14.320;2023-12-07T09:42:50;101166.03;;;3.91;100.00
7168;BME280;3625;51.762;14.320;2023-12-07T09:45:20;101157.44;;;3.98;100.00
7168;BME280;3625;51.762;14.320;2023-12-07T09:47:53;101159.22;;;4.02;100.00
7168;BME280;3625;51.762;14.320;2023-12-07T09:50:26;101165.50;;;4.13;100.00
7168;BME280;3625;51.762;14.320;2023-12-07T09:52:58;101162.97;;;4.19;100.00
7168;BME280;3625;51.762;14.320;2023-12-07T09:55:35;101072.31;;;3.67;100.00
7168;BME280;3625;51.762;14.320;2023-12-07T09:58:06;101092.59;;;3.82;100.00
7168;BME280;3625;51.762;14.320;2023-12-07T10:00:38;101167.47;;;4.28;100.00
7168;BME280;3625;51.762;14.320;2023-12-07T10:03:07;101170.22;;;4.37;100.00
7168;BME280;3625;51.762;14.320;2023-12-07T10:05:55;101174.00;;;4.55;100.00
7168;BME280;3625;51.762;14.320;2023-12-07T10:08:30;101155.66;;;4.59;100.00
7168;BME280;3625;51.762;14.320;2023-12-07T10:11:05;101164.69;;;4.80;100.00
7168;BME280;3625;51.762;14.320;2023-12-07T10:13:36;101167.41;;;4.88;100.00
7168;BME280;3625;51.762;14.320;2023-12-07T10:16:11;101170.00;;;4.86;100.00
7168;BME280;3625;51.762;14.320;2023-12-07T10:18:41;101167.28;;;4.79;100.00
7168;BME280;3625;51.762;14.320;2023-12-07T10:21:12;101165.59;;;4.82;100.00
7168;BME280;3625;51.762;14.320;2023-12-07T10:23:43;101165.75;;;4.96;100.00
7168;BME280;3625;51.762;14.320;2023-12-07T10:26:16;101163.31;;;5.10;100.00
7168;BME280;3625;51.762;14.320;2023-12-07T10:28:49;101157.19;;;5.09;100.00
7168;BME280;3625;51.762;14.320;2023-12-07T10:31:23;101159.81;;;5.11;100.00
7168;BME280;3625;51.762;14.320;2023-12-07T10:33:52;101158.97;;;5.13;100.00
7168;BME280;3625;51.762;14.320;2023-12-07T10:36:21;101157.19;;;5.11;100.00
7168;BME280;3625;51.762;14.320;2023-12-07T10:38:55;101164.09;;;5.01;100.00
7168;BME280;3625;51.762;14.320;2023-12-07T10:41:24;101134.13;;;4.81;100.00
7168;BME280;3625;51.762;14.320;2023-12-07T10:44:00;101164.84;;;4.94;100.00
7168;BME280;3625;51.762;14.320;2023-12-07T10:46:32;101164.78;;;4.88;100.00
7168;BME280;3625;51.762;14.320;2023-12-07T10:49:04;101163.00;;;4.82;100.00
7168;BME280;3625;51.762;14.320;2023-12-07T10:51:58;101147.94;;;4.68;100.00
7168;BME280;3625;51.762;14.320;2023-12-07T10:54:41;101148.88;;;4.73;100.00
7168;BME280;3625;51.762;14.320;2023-12-07T10:57:13;101154.88;;;4.64;100.00
7168;BME280;3625;51.762;14.320;2023-12-07T10:59:44;101163.69;;;4.69;100.00
7168;BME280;3625;51.762;14.320;2023-12-07T11:02:15;101166.28;;;4.68;100.00
7168;BME280;3625;51.762;14.320;2023-12-07T11:04:49;101127.59;;;4.50;100.00
7168;BME280;3625;51.762;14.320;2023-12-07T11:07:22;101133.69;;;4.46;100.00
7168;BME280;3625;51.762;14.320;2023-12-07T11:10:03;101027.34;;;3.94;100.00
7168;BME280;3625;51.762;14.320;2023-12-07T11:12:44;101154.00;;;4.64;100.00
7168;BME280;3625;51.762;14.320;2023-12-07T11:15:17;101162.69;;;4.61;100.00
7168;BME280;3625;51.762;14.320;2023-12-07T11:17:54;101165.28;;;4.57;100.00
7168;BME280;3625;51.762;14.320;2023-12-07T11:20:39;101164.28;;;4.50;100.00
7168;BME280;3625;51.762;14.320;2023-12-07T11:23:09;101158.94;;;4.41;100.00
7168;BME280;3625;51.762;14.320;2023-12-07T11:25:42;101161.47;;;4.35;100.00
7168;BME280;3625;51.762;14.320;2023-12-07T11:28:12;101158.72;;;4.27;100.00
7168;BME280;3625;51.762;14.320;2023-12-07T11:30:44;101156.06;;;4.23;100.00
7168;BME280;3625;51.762;14.320;2023-12-07T11:33:15;101159.47;;;4.18;100.00
7168;BME280;3625;51.762;14.320;2023-12-07T11:36:04;101159.44;;;4.17;100.00
7168;BME280;3625;51.762;14.320;2023-12-07T11:38:33;101157.66;;;4.13;100.00
7168;BME280;3625;51.762;14.320;2023-12-07T11:41:04;101169.03;;;4.15;100.00
7168;BME280;3625;51.762;14.320;2023-12-07T11:43:42;101163.75;;;4.12;100.00
7168;BME280;3625;51.762;14.320;2023-12-07T11:46:14;101159.41;;;4.12;100.00
7168;BME280;3625;51.762;14.320;2023-12-07T11:48:47;101160.28;;;4.13;100.00
7168;BME280;3625;51.762;14.320;2023-12-07T11:51:18;101161.94;;;4.08;100.00
7168;BME280;3625;51.762;14.320;2023-12-07T11:53:46;101153.13;;;4.03;100.00
7168;BME280;3625;51.762;14.320;2023-12-07T11:56:19;101147.88;;;4.01;100.00
7168;BME280;3625;51.762;14.320;2023-12-07T11:58:49;101120.59;;;3.86;100.00
7168;BME280;3625;51.762;14.320;2023-12-07T12:01:23;101145.25;;;4.01;100.00
7168;BME280;3625;51.762;14.320;2023-12-07T12:03:54;101149.66;;;4.04;100.00
7168;BME280;3625;51.762;14.320;2023-12-07T12:06:24;101123.22;;;3.87;100.00
7168;BME280;3625;51.762;14.320;2023-12-07T12:08:55;101146.03;;;3.94;100.00
7168;BME280;3625;51.762;14.320;2023-12-07T12:11:26;101141.63;;;3.93;100.00
7168;BME280;3625;51.762;14.320;2023-12-07T12:13:57;101145.97;;;3.91;100.00
7168;BME280;3625;51.762;14.320;2023-12-07T12:16:26;101146.75;;;3.86;100.00
7168;BME280;3625;51.762;14.320;2023-12-07T12:18:55;101149.41;;;3.87;100.00
7168;BME280;3625;51.762;14.320;2023-12-07T12:21:27;101095.69;;;3.56;100.00
7168;BME280;3625;51.762;14.320;2023-12-07T12:23:56;100938.16;;;2.64;100.00
7168;BME280;3625;51.762;14.320;2023-12-07T12:26:29;101121.44;;;3.85;100.00
7168;BME280;3625;51.762;14.320;2023-12-07T12:28:58;101141.75;;;4.01;100.00
7168;BME280;3625;51.762;14.320;2023-12-07T12:31:27;101140.81;;;3.96;100.00
7168;BME280;3625;51.762;14.320;2023-12-07T12:33:56;101137.28;;;3.94;100.00
7168;BME280;3625;51.762;14.320;2023-12-07T12:36:30;101139.81;;;3.88;100.00
7168;BME280;3625;51.762;14.320;2023-12-07T12:39:00;101079.84;;;3.49;100.00
7168;BME280;3625;51.762;14.320;2023-12-07T12:41:32;101137.09;;;3.80;100.00
7168;BME280;3625;51.762;14.320;2023-12-07T12:44:00;101139.66;;;3.78;100.00
7168;BME280;3625;51.762;14.320;2023-12-07T12:46:28;101152.78;;;3.80;100.00
7168;BME280;3625;51.762;14.320;2023-12-07T12:48:59;101122.00;;;3.65;100.00
7168;BME280;3625;51.762;14.320;2023-12-07T12:51:29;101148.31;;;3.74;100.00
7168;BME280;3625;51.762;14.320;2023-12-07T12:54:00;101126.31;;;3.62;100.00
7168;BME280;3625;51.762;14.320;2023-12-07T12:56:30;101080.50;;;3.34;100.00
7168;BME280;3625;51.762;14.320;2023-12-07T12:59:00;101151.81;;;3.75;100.00
7168;BME280;3625;51.762;14.320;2023-12-07T13:01:32;101147.41;;;3.72;100.00
7168;BME280;3625;51.762;14.320;2023-12-07T13:04:02;101152.59;;;3.69;100.00
7168;BME280;3625;51.762;14.320;2023-12-07T13:06:31;101147.38;;;3.69;100.00
7168;BME280;3625;51.762;14.320;2023-12-07T13:09:00;101097.09;;;3.37;100.00
7168;BME280;3625;51.762;14.320;2023-12-07T13:11:28;101108.44;;;3.36;100.00
7168;BME280;3625;51.762;14.320;2023-12-07T13:13:58;101148.13;;;3.62;100.00
7168;BME280;3625;51.762;14.320;2023-12-07T13:16:33;101149.75;;;3.57;100.00
7168;BME280;3625;51.762;14.320;2023-12-07T13:19:02;101147.13;;;3.56;100.00